sensor_id;sensor_type;location;lat;lon;timestamp;P1;durP1;ratioP1;P2;durP2;ratioP2
77544;SDS011;66672;50.328;7.610;2023-05-07T00:02:18;5.70;;;2.60;;
77544;SDS011;66672;50.328;7.610;2023-05-07T00:04:43;4.97;;;2.30;;
77544;SDS011;66672;50.328;7.610;2023-05-07T00:07:09;6.28;;;2.85;;
77544;SDS011;66672;50.328;7.610;2023-05-07T00:09:35;7.30;;;2.80;;
77544;SDS011;66672;50.328;7.610;2023-05-07T00:12:01;6.65;;;3.15;;
77544;SDS011;66672;50.328;7.610;2023-05-07T00:14:26;16.17;;;4.00;;
77544;SDS011;66672;50.328;7.610;2023-05-07T00:16:51;4.82;;;2.88;;
77544;SDS011;66672;50.328;7.610;2023-05-07T00:19:16;5.47;;;2.90;;
77544;SDS011;66672;50.328;7.610;2023-05-07T00:21:41;4.15;;;2.42;;
77544;SDS011;66672;50.328;7.610;2023-05-07T00:24:07;6.35;;;2.50;;
77544;SDS011;66672;50.328;7.610;2023-05-07T00:26:32;5.55;;;3.10;;
77544;SDS011;66672;50.328;7.610;2023-05-07T00:28:57;10.52;;;3.05;;
77544;SDS011;66672;50.328;7.610;2023-05-07T00:31:22;5.38;;;2.97;;
77544;SDS011;66672;50.328;7.610;2023-05-07T00:33:47;5.65;;;2.90;;
77544;SDS011;66672;50.328;7.610;2023-05-07T00:36:13;4.78;;;3.38;;
77544;SDS011;66672;50.328;7.610;2023-05-07T00:38:38;8.13;;;3.60;;
77544;SDS011;66672;50.328;7.610;2023-05-07T00:41:03;4.70;;;3.10;;
77544;SDS011;66672;50.328;7.610;2023-05-07T00:43:28;5.70;;;2.83;;
77544;SDS011;66672;50.328;7.610;2023-05-07T00:45:53;4.97;;;2.95;;
77544;SDS011;66672;50.328;7.610;2023-05-07T00:48:19;8.75;;;3.35;;
77544;SDS011;66672;50.328;7.610;2023-05-07T00:50:44;6.78;;;3.95;;
77544;SDS011;66672;50.328;7.610;2023-05-07T00:53:10;6.43;;;3.53;;
77544;SDS011;66672;50.328;7.610;2023-05-07T00:55:35;4.75;;;2.40;;
77544;SDS011;66672;50.328;7.610;2023-05-07T00:58:01;5.20;;;2.65;;
77544;SDS011;66672;50.328;7.610;2023-05-07T01:00:26;5.57;;;2.88;;
77544;SDS011;66672;50.328;7.610;2023-05-07T01:02:52;6.18;;;2.70;;
77544;SDS011;66672;50.328;7.610;2023-05-07T01:05:18;4.43;;;2.63;;
77544;SDS011;66672;50.328;7.610;2023-05-07T01:07:43;8.20;;;2.90;;
77544;SDS011;66672;50.328;7.610;2023-05-07T01:10:09;8.43;;;2.72;;
77544;SDS011;66672;50.328;7.610;2023-05-07T01:12:35;7.90;;;2.65;;
77544;SDS011;66672;50.328;7.610;2023-05-07T01:15:02;4.30;;;2.38;;
77544;SDS011;66672;50.328;7.610;2023-05-07T01:17:28;4.43;;;2.53;;
77544;SDS011;66672;50.328;7.610;2023-05-07T01:19:53;5.00;;;2.65;;
77544;SDS011;66672;50.328;7.610;2023-05-07T01:22:26;5.20;;;2.13;;
77544;SDS011;66672;50.328;7.610;2023-05-07T01:24:53;5.93;;;2.10;;
77544;SDS011;66672;50.328;7.610;2023-05-07T01:27:21;5.20;;;2.20;;
77544;SDS011;66672;50.328;7.610;2023-05-07T01:29:46;3.58;;;1.90;;
77544;SDS011;66672;50.328;7.610;2023-05-07T01:32:11;5.22;;;2.17;;
77544;SDS011;66672;50.328;7.610;2023-05-07T01:34:37;6.55;;;2.13;;
77544;SDS011;66672;50.328;7.610;2023-05-07T01:37:03;5.65;;;2.08;;
77544;SDS011;66672;50.328;7.610;2023-05-07T01:39:29;5.38;;;2.30;;
77544;SDS011;66672;50.328;7.610;2023-05-07T01:41:54;4.32;;;2.45;;
77544;SDS011;66672;50.328;7.610;2023-05-07T01:44:20;6.60;;;2.42;;
77544;SDS011;66672;50.328;7.610;2023-05-07T01:46:46;5.10;;;2.42;;
77544;SDS011;66672;50.328;7.610;2023-05-07T01:49:11;6.95;;;3.13;;
77544;SDS011;66672;50.328;7.610;2023-05-07T01:51:36;8.43;;;2.42;;
77544;SDS011;66672;50.328;7.610;2023-05-07T01:54:02;5.95;;;2.38;;
77544;SDS011;66672;50.328;7.610;2023-05-07T01:56:27;5.88;;;2.50;;
77544;SDS011;66672;50.328;7.610;2023-05-07T01:58:52;5.72;;;2.50;;
77544;SDS011;66672;50.328;7.610;2023-05-07T02:01:17;6.35;;;2.70;;
77544;SDS011;66672;50.328;7.610;2023-05-07T02:03:43;7.65;;;2.60;;
77544;SDS011;66672;50.328;7.610;2023-05-07T02:06:08;5.65;;;2.85;;
77544;SDS011;66672;50.328;7.610;2023-05-07T02:08:33;5.35;;;2.97;;
77544;SDS011;66672;50.328;7.610;2023-05-07T02:10:58;5.43;;;2.65;;
77544;SDS011;66672;50.328;7.610;2023-05-07T02:13:24;4.95;;;2.78;;
77544;SDS011;66672;50.328;7.610;2023-05-07T02:15:49;5.00;;;2.78;;
77544;SDS011;66672;50.328;7.610;2023-05-07T02:18:15;8.75;;;2.75;;
77544;SDS011;66672;50.328;7.610;2023-05-07T02:20:41;7.50;;;2.75;;
77544;SDS011;66672;50.328;7.610;2023-05-07T02:23:06;5.25;;;2.58;;
77544;SDS011;66672;50.328;7.610;2023-05-07T02:25:31;6.95;;;2.47;;
77544;SDS011;66672;50.328;7.610;2023-05-07T02:27:56;4.97;;;2.63;;
77544;SDS011;66672;50.328;7.610;2023-05-07T02:30:21;8.52;;;2.83;;
77544;SDS011;66672;50.328;7.610;2023-05-07T02:32:47;4.68;;;2.80;;
77544;SDS011;66672;50.328;7.610;2023-05-07T02:35:12;6.53;;;2.90;;
77544;SDS011;66672;50.328;7.610;2023-05-07T02:37:37;4.97;;;2.80;;
77544;SDS011;66672;50.328;7.610;2023-05-07T02:40:02;4.82;;;2.38;;
77544;SDS011;66672;50.328;7.610;2023-05-07T02:42:29;5.43;;;2.55;;
77544;SDS011;66672;50.328;7.610;2023-05-07T02:44:54;4.47;;;2.72;;
77544;SDS011;66672;50.328;7.610;2023-05-07T02:47:19;6.05;;;2.28;;
77544;SDS011;66672;50.328;7.610;2023-05-07T02:49:44;5.30;;;2.42;;
77544;SDS011;66672;50.328;7.610;2023-05-07T02:52:10;4.72;;;2.20;;
77544;SDS011;66672;50.328;7.610;2023-05-07T02:54:35;5.28;;;2.45;;
77544;SDS011;66672;50.328;7.610;2023-05-07T02:57:00;6.07;;;2.05;;
77544;SDS011;66672;50.328;7.610;2023-05-07T02:59:28;4.45;;;2.47;;
77544;SDS011;66672;50.328;7.610;2023-05-07T03:01:53;8.20;;;2.17;;
77544;SDS011;66672;50.328;7.610;2023-05-07T03:04:19;5.60;;;2.20;;
77544;SDS011;66672;50.328;7.610;2023-05-07T03:06:44;5.40;;;2.40;;
77544;SDS011;66672;50.328;7.610;2023-05-07T03:09:09;4.10;;;2.20;;
77544;SDS011;66672;50.328;7.610;2023-05-07T03:11:34;5.88;;;2.10;;
77544;SDS011;66672;50.328;7.610;2023-05-07T03:14:00;4.30;;;2.38;;
77544;SDS011;66672;50.328;7.610;2023-05-07T03:16:25;4.45;;;2.28;;
77544;SDS011;66672;50.328;7.610;2023-05-07T03:18:51;5.50;;;2.60;;
77544;SDS011;66672;50.328;7.610;2023-05-07T03:21:16;7.05;;;2.40;;
77544;SDS011;66672;50.328;7.610;2023-05-07T03:23:42;6.30;;;2.00;;
77544;SDS011;66672;50.328;7.610;2023-05-07T03:26:07;4.90;;;2.30;;
77544;SDS011;66672;50.328;7.610;2023-05-07T03:28:32;6.82;;;2.30;;
77544;SDS011;66672;50.328;7.610;2023-05-07T03:30:57;4.60;;;2.42;;
77544;SDS011;66672;50.328;7.610;2023-05-07T03:33:22;6.75;;;2.50;;
77544;SDS011;66672;50.328;7.610;2023-05-07T03:35:48;5.15;;;2.50;;
77544;SDS011;66672;50.328;7.610;2023-05-07T03:38:13;5.35;;;2.40;;
77544;SDS011;66672;50.328;7.610;2023-05-07T03:40:38;4.88;;;2.42;;
77544;SDS011;66672;50.328;7.610;2023-05-07T03:43:03;4.53;;;2.45;;
77544;SDS011;66672;50.328;7.610;2023-05-07T03:45:28;6.65;;;2.90;;
77544;SDS011;66672;50.328;7.610;2023-05-07T03:47:54;6.43;;;2.90;;
77544;SDS011;66672;50.328;7.610;2023-05-07T03:50:19;11.38;;;2.85;;
77544;SDS011;66672;50.328;7.610;2023-05-07T03:52:44;7.97;;;2.55;;
77544;SDS011;66672;50.328;7.610;2023-05-07T03:55:10;6.32;;;2.17;;
77544;SDS011;66672;50.328;7.610;2023-05-07T03:57:35;6.55;;;3.03;;
77544;SDS011;66672;50.328;7.610;2023-05-07T04:00:00;6.82;;;2.65;;
77544;SDS011;66672;50.328;7.610;2023-05-07T04:02:25;6.38;;;3.00;;
77544;SDS011;66672;50.328;7.610;2023-05-07T04:04:51;6.05;;;2.50;;
77544;SDS011;66672;50.328;7.610;2023-05-07T04:07:16;5.18;;;2.72;;
77544;SDS011;66672;50.328;7.610;2023-05-07T04:09:41;6.57;;;2.50;;
77544;SDS011;66672;50.328;7.610;2023-05-07T04:12:07;5.25;;;2.30;;
77544;SDS011;66672;50.328;7.610;2023-05-07T04:14:32;9.27;;;2.50;;
77544;SDS011;66672;50.328;7.610;2023-05-07T04:16:58;5.30;;;2.47;;
77544;SDS011;66672;50.328;7.610;2023-05-07T04:19:23;4.85;;;2.53;;
77544;SDS011;66672;50.328;7.610;2023-05-07T04:21:48;5.15;;;2.83;;
77544;SDS011;66672;50.328;7.610;2023-05-07T04:24:13;4.80;;;2.45;;
77544;SDS011;66672;50.328;7.610;2023-05-07T04:26:39;4.88;;;2.60;;
77544;SDS011;66672;50.328;7.610;2023-05-07T04:29:05;5.60;;;2.80;;
77544;SDS011;66672;50.328;7.610;2023-05-07T04:31:30;6.20;;;2.50;;
77544;SDS011;66672;50.328;7.610;2023-05-07T04:33:55;7.22;;;3.03;;
77544;SDS011;66672;50.328;7.610;2023-05-07T04:36:20;7.78;;;2.60;;
77544;SDS011;66672;50.328;7.610;2023-05-07T04:38:46;7.38;;;2.75;;
77544;SDS011;66672;50.328;7.610;2023-05-07T04:41:12;9.63;;;3.50;;
77544;SDS011;66672;50.328;7.610;2023-05-07T04:43:37;7.95;;;3.50;;
77544;SDS011;66672;50.328;7.610;2023-05-07T04:46:03;5.97;;;3.60;;
77544;SDS011;66672;50.328;7.610;2023-05-07T04:48:28;5.30;;;3.40;;
77544;SDS011;66672;50.328;7.610;2023-05-07T04:50:54;6.35;;;3.55;;
77544;SDS011;66672;50.328;7.610;2023-05-07T04:53:19;6.88;;;3.13;;
77544;SDS011;66672;50.328;7.610;2023-05-07T04:55:45;6.95;;;3.83;;
77544;SDS011;66672;50.328;7.610;2023-05-07T04:58:10;7.88;;;3.22;;
77544;SDS011;66672;50.328;7.610;2023-05-07T05:00:36;6.75;;;3.20;;
77544;SDS011;66672;50.328;7.610;2023-05-07T05:03:01;4.88;;;3.03;;
77544;SDS011;66672;50.328;7.610;2023-05-07T05:05:26;5.53;;;2.47;;
77544;SDS011;66672;50.328;7.610;2023-05-07T05:07:51;5.68;;;3.25;;
77544;SDS011;66672;50.328;7.610;2023-05-07T05:10:16;5.05;;;3.00;;
77544;SDS011;66672;50.328;7.610;2023-05-07T05:12:42;4.15;;;2.45;;
77544;SDS011;66672;50.328;7.610;2023-05-07T05:15:07;7.68;;;2.90;;
77544;SDS011;66672;50.328;7.610;2023-05-07T05:17:33;8.15;;;4.70;;
77544;SDS011;66672;50.328;7.610;2023-05-07T05:19:59;8.27;;;5.25;;
77544;SDS011;66672;50.328;7.610;2023-05-07T05:22:25;6.32;;;3.92;;
77544;SDS011;66672;50.328;7.610;2023-05-07T05:24:50;6.88;;;4.75;;
77544;SDS011;66672;50.328;7.610;2023-05-07T05:27:15;9.45;;;4.88;;
77544;SDS011;66672;50.328;7.610;2023-05-07T05:29:40;7.40;;;4.93;;
77544;SDS011;66672;50.328;7.610;2023-05-07T05:32:06;11.52;;;6.13;;
77544;SDS011;66672;50.328;7.610;2023-05-07T05:34:31;9.55;;;5.93;;
77544;SDS011;66672;50.328;7.610;2023-05-07T05:36:58;8.52;;;5.85;;
77544;SDS011;66672;50.328;7.610;2023-05-07T05:39:23;9.07;;;6.30;;
77544;SDS011;66672;50.328;7.610;2023-05-07T05:41:49;12.43;;;6.63;;
77544;SDS011;66672;50.328;7.610;2023-05-07T05:44:14;9.43;;;6.78;;
77544;SDS011;66672;50.328;7.610;2023-05-07T05:46:39;12.57;;;6.82;;
77544;SDS011;66672;50.328;7.610;2023-05-07T05:49:05;16.48;;;7.22;;
77544;SDS011;66672;50.328;7.610;2023-05-07T05:51:30;11.68;;;6.55;;
77544;SDS011;66672;50.328;7.610;2023-05-07T05:53:55;10.57;;;6.95;;
77544;SDS011;66672;50.328;7.610;2023-05-07T05:56:20;7.93;;;6.03;;
77544;SDS011;66672;50.328;7.610;2023-05-07T05:58:46;8.07;;;5.57;;
77544;SDS011;66672;50.328;7.610;2023-05-07T06:01:11;6.95;;;5.03;;
77544;SDS011;66672;50.328;7.610;2023-05-07T06:03:36;11.65;;;6.15;;
77544;SDS011;66672;50.328;7.610;2023-05-07T06:06:02;11.32;;;6.38;;
77544;SDS011;66672;50.328;7.610;2023-05-07T06:08:30;8.18;;;5.68;;
77544;SDS011;66672;50.328;7.610;2023-05-07T06:10:55;10.38;;;5.93;;
77544;SDS011;66672;50.328;7.610;2023-05-07T06:13:21;8.73;;;6.15;;
77544;SDS011;66672;50.328;7.610;2023-05-07T06:15:46;8.82;;;5.90;;
77544;SDS011;66672;50.328;7.610;2023-05-07T06:18:11;9.02;;;5.70;;
77544;SDS011;66672;50.328;7.610;2023-05-07T06:20:36;9.38;;;6.22;;
77544;SDS011;66672;50.328;7.610;2023-05-07T06:23:01;8.90;;;5.88;;
77544;SDS011;66672;50.328;7.610;2023-05-07T06:25:27;9.82;;;6.00;;
77544;SDS011;66672;50.328;7.610;2023-05-07T06:27:52;10.30;;;6.20;;
77544;SDS011;66672;50.328;7.610;2023-05-07T06:30:17;8.63;;;6.22;;
77544;SDS011;66672;50.328;7.610;2023-05-07T06:32:42;10.18;;;6.70;;
77544;SDS011;66672;50.328;7.610;2023-05-07T06:35:07;12.18;;;6.40;;
77544;SDS011;66672;50.328;7.610;2023-05-07T06:37:33;9.68;;;6.43;;
77544;SDS011;66672;50.328;7.610;2023-05-07T06:39:58;10.25;;;6.28;;
77544;SDS011;66672;50.328;7.610;2023-05-07T06:42:23;7.80;;;5.07;;
77544;SDS011;66672;50.328;7.610;2023-05-07T06:44:48;7.00;;;4.72;;
77544;SDS011;66672;50.328;7.610;2023-05-07T06:47:13;7.55;;;5.07;;
77544;SDS011;66672;50.328;7.610;2023-05-07T06:49:39;6.40;;;4.07;;
77544;SDS011;66672;50.328;7.610;2023-05-07T06:52:04;7.78;;;3.92;;
77544;SDS011;66672;50.328;7.610;2023-05-07T06:54:29;6.20;;;3.97;;
77544;SDS011;66672;50.328;7.610;2023-05-07T06:56:54;6.45;;;4.00;;
77544;SDS011;66672;50.328;7.610;2023-05-07T06:59:19;5.10;;;2.88;;
77544;SDS011;66672;50.328;7.610;2023-05-07T07:01:45;5.32;;;2.80;;
77544;SDS011;66672;50.328;7.610;2023-05-07T07:04:10;5.93;;;3.20;;
77544;SDS011;66672;50.328;7.610;2023-05-07T07:06:35;5.75;;;3.22;;
77544;SDS011;66672;50.328;7.610;2023-05-07T07:09:00;4.60;;;2.83;;
77544;SDS011;66672;50.328;7.610;2023-05-07T07:11:26;4.18;;;2.55;;
77544;SDS011;66672;50.328;7.610;2023-05-07T07:13:51;5.30;;;2.90;;
77544;SDS011;66672;50.328;7.610;2023-05-07T07:16:16;5.10;;;2.80;;
77544;SDS011;66672;50.328;7.610;2023-05-07T07:18:41;5.10;;;2.60;;
77544;SDS011;66672;50.328;7.610;2023-05-07T07:21:07;4.85;;;3.15;;
77544;SDS011;66672;50.328;7.610;2023-05-07T07:23:32;4.40;;;2.30;;
77544;SDS011;66672;50.328;7.610;2023-05-07T07:25:57;4.80;;;2.88;;
77544;SDS011;66672;50.328;7.610;2023-05-07T07:28:23;6.22;;;4.18;;
77544;SDS011;66672;50.328;7.610;2023-05-07T07:30:48;6.38;;;3.30;;
77544;SDS011;66672;50.328;7.610;2023-05-07T07:33:13;4.22;;;2.88;;
77544;SDS011;66672;50.328;7.610;2023-05-07T07:35:39;6.30;;;3.42;;
77544;SDS011;66672;50.328;7.610;2023-05-07T07:38:04;5.55;;;3.67;;
77544;SDS011;66672;50.328;7.610;2023-05-07T07:40:30;8.52;;;3.20;;
77544;SDS011;66672;50.328;7.610;2023-05-07T07:42:56;5.15;;;3.40;;
77544;SDS011;66672;50.328;7.610;2023-05-07T07:45:21;5.43;;;3.08;;
77544;SDS011;66672;50.328;7.610;2023-05-07T07:47:46;6.95;;;3.50;;
77544;SDS011;66672;50.328;7.610;2023-05-07T07:50:12;8.90;;;3.58;;
77544;SDS011;66672;50.328;7.610;2023-05-07T07:52:37;5.90;;;3.40;;
77544;SDS011;66672;50.328;7.610;2023-05-07T07:55:02;5.40;;;2.80;;
77544;SDS011;66672;50.328;7.610;2023-05-07T07:57:28;5.57;;;2.80;;
77544;SDS011;66672;50.328;7.610;2023-05-07T07:59:53;5.32;;;2.88;;
77544;SDS011;66672;50.328;7.610;2023-05-07T08:02:18;5.57;;;3.00;;
77544;SDS011;66672;50.328;7.610;2023-05-07T08:04:43;6.40;;;2.53;;
77544;SDS011;66672;50.328;7.610;2023-05-07T08:07:09;5.75;;;3.72;;
77544;SDS011;66672;50.328;7.610;2023-05-07T08:09:34;7.75;;;2.80;;
77544;SDS011;66672;50.328;7.610;2023-05-07T08:12:00;5.90;;;2.92;;
77544;SDS011;66672;50.328;7.610;2023-05-07T08:14:26;4.97;;;2.70;;
77544;SDS011;66672;50.328;7.610;2023-05-07T08:16:53;4.32;;;2.55;;
77544;SDS011;66672;50.328;7.610;2023-05-07T08:19:18;7.90;;;3.45;;
77544;SDS011;66672;50.328;7.610;2023-05-07T08:21:43;3.88;;;2.38;;
77544;SDS011;66672;50.328;7.610;2023-05-07T08:24:08;4.68;;;2.70;;
77544;SDS011;66672;50.328;7.610;2023-05-07T08:26:33;5.25;;;2.65;;
77544;SDS011;66672;50.328;7.610;2023-05-07T08:29:00;5.65;;;2.78;;
77544;SDS011;66672;50.328;7.610;2023-05-07T08:31:25;4.65;;;2.35;;
77544;SDS011;66672;50.328;7.610;2023-05-07T08:33:51;4.45;;;2.50;;
77544;SDS011;66672;50.328;7.610;2023-05-07T08:36:16;5.60;;;3.33;;
77544;SDS011;66672;50.328;7.610;2023-05-07T08:38:41;4.68;;;2.67;;
77544;SDS011;66672;50.328;7.610;2023-05-07T08:41:10;4.50;;;2.63;;
77544;SDS011;66672;50.328;7.610;2023-05-07T08:43:36;5.30;;;2.97;;
77544;SDS011;66672;50.328;7.610;2023-05-07T08:46:02;4.95;;;2.53;;
77544;SDS011;66672;50.328;7.610;2023-05-07T08:48:29;4.88;;;2.80;;
77544;SDS011;66672;50.328;7.610;2023-05-07T08:50:55;4.53;;;2.65;;
77544;SDS011;66672;50.328;7.610;2023-05-07T08:53:20;5.40;;;2.65;;
77544;SDS011;66672;50.328;7.610;2023-05-07T08:55:45;6.07;;;2.70;;
77544;SDS011;66672;50.328;7.610;2023-05-07T08:58:11;5.35;;;2.40;;
77544;SDS011;66672;50.328;7.610;2023-05-07T09:00:36;4.13;;;2.42;;
77544;SDS011;66672;50.328;7.610;2023-05-07T09:03:02;4.57;;;2.78;;
77544;SDS011;66672;50.328;7.610;2023-05-07T09:05:27;5.57;;;3.00;;
77544;SDS011;66672;50.328;7.610;2023-05-07T09:07:53;8.32;;;2.88;;
77544;SDS011;66672;50.328;7.610;2023-05-07T09:10:20;6.43;;;3.28;;
77544;SDS011;66672;50.328;7.610;2023-05-07T09:12:46;4.55;;;2.75;;
77544;SDS011;66672;50.328;7.610;2023-05-07T09:15:11;4.97;;;2.97;;
77544;SDS011;66672;50.328;7.610;2023-05-07T09:17:37;6.20;;;3.00;;
77544;SDS011;66672;50.328;7.610;2023-05-07T09:20:05;8.68;;;3.40;;
77544;SDS011;66672;50.328;7.610;2023-05-07T09:22:31;5.53;;;2.97;;
77544;SDS011;66672;50.328;7.610;2023-05-07T09:24:57;5.40;;;4.10;;
77544;SDS011;66672;50.328;7.610;2023-05-07T09:27:22;5.05;;;3.38;;
77544;SDS011;66672;50.328;7.610;2023-05-07T09:29:47;6.45;;;2.90;;
77544;SDS011;66672;50.328;7.610;2023-05-07T09:32:12;6.75;;;3.00;;
77544;SDS011;66672;50.328;7.610;2023-05-07T09:34:39;4.38;;;2.90;;
77544;SDS011;66672;50.328;7.610;2023-05-07T09:37:05;4.60;;;2.95;;
77544;SDS011;66672;50.328;7.610;2023-05-07T09:39:49;6.63;;;3.15;;
77544;SDS011;66672;50.328;7.610;2023-05-07T09:42:14;5.65;;;2.78;;
77544;SDS011;66672;50.328;7.610;2023-05-07T09:44:45;4.25;;;2.28;;
77544;SDS011;66672;50.328;7.610;2023-05-07T09:47:11;4.53;;;2.60;;
77544;SDS011;66672;50.328;7.610;2023-05-07T09:49:39;4.63;;;2.65;;
77544;SDS011;66672;50.328;7.610;2023-05-07T09:52:05;7.22;;;3.28;;
77544;SDS011;66672;50.328;7.610;2023-05-07T09:54:31;4.60;;;3.00;;
77544;SDS011;66672;50.328;7.610;2023-05-07T09:56:58;5.10;;;2.92;;
77544;SDS011;66672;50.328;7.610;2023-05-07T09:59:23;5.65;;;3.47;;
77544;SDS011;66672;50.328;7.610;2023-05-07T10:01:49;7.18;;;3.42;;
77544;SDS011;66672;50.328;7.610;2023-05-07T10:04:16;7.55;;;3.40;;
77544;SDS011;66672;50.328;7.610;2023-05-07T10:06:42;4.65;;;3.25;;
77544;SDS011;66672;50.328;7.610;2023-05-07T10:09:08;4.90;;;2.80;;
77544;SDS011;66672;50.328;7.610;2023-05-07T10:11:35;5.40;;;2.95;;
77544;SDS011;66672;50.328;7.610;2023-05-07T10:14:00;4.82;;;3.05;;
77544;SDS011;66672;50.328;7.610;2023-05-07T10:16:31;6.15;;;2.80;;
77544;SDS011;66672;50.328;7.610;2023-05-07T10:18:57;4.75;;;2.65;;
77544;SDS011;66672;50.328;7.610;2023-05-07T10:21:23;5.15;;;2.90;;
77544;SDS011;66672;50.328;7.610;2023-05-07T10:23:54;4.55;;;2.78;;
77544;SDS011;66672;50.328;7.610;2023-05-07T10:26:22;4.80;;;2.72;;
77544;SDS011;66672;50.328;7.610;2023-05-07T10:28:49;5.75;;;2.85;;
77544;SDS011;66672;50.328;7.610;2023-05-07T10:36:24;5.97;;;2.70;;
77544;SDS011;66672;50.328;7.610;2023-05-07T10:38:50;6.93;;;3.22;;
77544;SDS011;66672;50.328;7.610;2023-05-07T10:41:15;7.20;;;2.90;;
77544;SDS011;66672;50.328;7.610;2023-05-07T10:43:43;4.20;;;2.33;;
77544;SDS011;66672;50.328;7.610;2023-05-07T10:46:14;4.00;;;2.75;;
77544;SDS011;66672;50.328;7.610;2023-05-07T10:51:36;5.00;;;2.50;;
77544;SDS011;66672;50.328;7.610;2023-05-07T10:56:35;7.55;;;3.47;;
77544;SDS011;66672;50.328;7.610;2023-05-07T11:04:14;4.55;;;2.35;;
77544;SDS011;66672;50.328;7.610;2023-05-07T11:06:40;4.85;;;2.17;;
77544;SDS011;66672;50.328;7.610;2023-05-07T11:09:05;4.20;;;2.25;;
77544;SDS011;66672;50.328;7.610;2023-05-07T11:11:46;5.60;;;2.75;;
77544;SDS011;66672;50.328;7.610;2023-05-07T11:14:13;4.65;;;2.65;;
77544;SDS011;66672;50.328;7.610;2023-05-07T11:16:38;4.00;;;2.45;;
77544;SDS011;66672;50.328;7.610;2023-05-07T11:19:05;5.47;;;2.47;;
77544;SDS011;66672;50.328;7.610;2023-05-07T11:21:37;3.67;;;2.47;;
77544;SDS011;66672;50.328;7.610;2023-05-07T11:24:03;4.75;;;2.10;;
77544;SDS011;66672;50.328;7.610;2023-05-07T11:26:29;8.57;;;2.60;;
77544;SDS011;66672;50.328;7.610;2023-05-07T11:28:55;8.35;;;3.03;;
77544;SDS011;66672;50.328;7.610;2023-05-07T11:31:22;5.72;;;2.72;;
77544;SDS011;66672;50.328;7.610;2023-05-07T11:33:48;3.92;;;2.47;;
77544;SDS011;66672;50.328;7.610;2023-05-07T11:36:13;3.72;;;2.50;;
77544;SDS011;66672;50.328;7.610;2023-05-07T11:38:39;5.03;;;2.83;;
77544;SDS011;66672;50.328;7.610;2023-05-07T11:41:04;9.32;;;3.08;;
77544;SDS011;66672;50.328;7.610;2023-05-07T11:43:30;5.70;;;3.05;;
77544;SDS011;66672;50.328;7.610;2023-05-07T11:45:58;4.43;;;2.60;;
77544;SDS011;66672;50.328;7.610;2023-05-07T11:48:29;5.57;;;2.40;;
77544;SDS011;66672;50.328;7.610;2023-05-07T11:53:26;5.22;;;2.92;;
77544;SDS011;66672;50.328;7.610;2023-05-07T11:55:52;4.13;;;2.80;;
77544;SDS011;66672;50.328;7.610;2023-05-07T11:58:20;6.53;;;2.90;;
77544;SDS011;66672;50.328;7.610;2023-05-07T12:00:49;4.75;;;2.80;;
77544;SDS011;66672;50.328;7.610;2023-05-07T12:03:14;4.30;;;2.78;;
77544;SDS011;66672;50.328;7.610;2023-05-07T12:05:40;4.68;;;2.58;;
77544;SDS011;66672;50.328;7.610;2023-05-07T12:08:07;6.70;;;3.33;;
77544;SDS011;66672;50.328;7.610;2023-05-07T12:10:32;5.32;;;2.75;;
77544;SDS011;66672;50.328;7.610;2023-05-07T12:12:57;4.63;;;2.88;;
77544;SDS011;66672;50.328;7.610;2023-05-07T12:15:22;13.77;;;5.32;;
77544;SDS011;66672;50.328;7.610;2023-05-07T12:17:47;6.60;;;3.58;;
77544;SDS011;66672;50.328;7.610;2023-05-07T12:20:13;12.45;;;5.07;;
77544;SDS011;66672;50.328;7.610;2023-05-07T12:22:39;6.82;;;3.45;;
77544;SDS011;66672;50.328;7.610;2023-05-07T12:25:05;9.55;;;5.38;;
77544;SDS011;66672;50.328;7.610;2023-05-07T12:27:31;11.82;;;5.00;;
77544;SDS011;66672;50.328;7.610;2023-05-07T12:29:57;6.20;;;3.60;;
77544;SDS011;66672;50.328;7.610;2023-05-07T12:32:22;7.22;;;3.95;;
77544;SDS011;66672;50.328;7.610;2023-05-07T12:34:51;7.10;;;3.13;;
77544;SDS011;66672;50.328;7.610;2023-05-07T12:37:16;8.57;;;3.45;;
77544;SDS011;66672;50.328;7.610;2023-05-07T12:39:47;6.15;;;2.80;;
77544;SDS011;66672;50.328;7.610;2023-05-07T12:42:16;5.85;;;2.90;;
77544;SDS011;66672;50.328;7.610;2023-05-07T12:44:41;6.65;;;2.88;;
77544;SDS011;66672;50.328;7.610;2023-05-07T12:47:06;4.00;;;2.70;;
77544;SDS011;66672;50.328;7.610;2023-05-07T12:49:33;4.80;;;2.70;;
77544;SDS011;66672;50.328;7.610;2023-05-07T12:51:59;4.47;;;3.13;;
77544;SDS011;66672;50.328;7.610;2023-05-07T12:54:34;4.50;;;3.15;;
77544;SDS011;66672;50.328;7.610;2023-05-07T12:57:00;5.95;;;3.30;;
77544;SDS011;66672;50.328;7.610;2023-05-07T12:59:58;5.25;;;3.05;;
77544;SDS011;66672;50.328;7.610;2023-05-07T13:02:16;4.82;;;2.78;;
77544;SDS011;66672;50.328;7.610;2023-05-07T13:04:42;5.97;;;3.13;;
77544;SDS011;66672;50.328;7.610;2023-05-07T13:07:07;7.20;;;3.30;;
77544;SDS011;66672;50.328;7.610;2023-05-07T13:09:32;4.93;;;3.03;;
77544;SDS011;66672;50.328;7.610;2023-05-07T13:11:58;4.57;;;2.65;;
77544;SDS011;66672;50.328;7.610;2023-05-07T13:14:26;4.53;;;3.00;;
77544;SDS011;66672;50.328;7.610;2023-05-07T13:16:51;4.65;;;2.72;;
77544;SDS011;66672;50.328;7.610;2023-05-07T13:19:16;4.70;;;3.42;;
77544;SDS011;66672;50.328;7.610;2023-05-07T13:21:42;5.82;;;3.33;;
77544;SDS011;66672;50.328;7.610;2023-05-07T13:24:07;6.03;;;3.22;;
77544;SDS011;66672;50.328;7.610;2023-05-07T13:26:32;5.68;;;3.00;;
77544;SDS011;66672;50.328;7.610;2023-05-07T13:28:58;4.28;;;2.90;;
77544;SDS011;66672;50.328;7.610;2023-05-07T13:31:23;5.10;;;2.65;;
77544;SDS011;66672;50.328;7.610;2023-05-07T13:33:48;7.72;;;3.20;;
77544;SDS011;66672;50.328;7.610;2023-05-07T13:36:14;6.32;;;3.15;;
77544;SDS011;66672;50.328;7.610;2023-05-07T13:38:39;6.18;;;3.13;;
77544;SDS011;66672;50.328;7.610;2023-05-07T13:41:04;5.18;;;3.08;;
77544;SDS011;66672;50.328;7.610;2023-05-07T13:43:30;7.60;;;2.95;;
77544;SDS011;66672;50.328;7.610;2023-05-07T13:45:56;5.85;;;3.05;;
77544;SDS011;66672;50.328;7.610;2023-05-07T13:48:21;5.57;;;2.87;;
77544;SDS011;66672;50.328;7.610;2023-05-07T13:50:47;5.80;;;3.15;;
77544;SDS011;66672;50.328;7.610;2023-05-07T13:53:12;4.60;;;2.88;;
77544;SDS011;66672;50.328;7.610;2023-05-07T13:55:37;4.07;;;2.77;;
77544;SDS011;66672;50.328;7.610;2023-05-07T13:58:02;5.53;;;3.20;;
77544;SDS011;66672;50.328;7.610;2023-05-07T14:00:28;4.63;;;2.80;;
77544;SDS011;66672;50.328;7.610;2023-05-07T14:02:53;5.07;;;3.40;;
77544;SDS011;66672;50.328;7.610;2023-05-07T14:05:19;5.00;;;3.45;;
77544;SDS011;66672;50.328;7.610;2023-05-07T14:07:44;3.85;;;2.80;;
77544;SDS011;66672;50.328;7.610;2023-05-07T14:10:10;5.28;;;2.80;;
77544;SDS011;66672;50.328;7.610;2023-05-07T14:12:36;3.95;;;2.40;;
77544;SDS011;66672;50.328;7.610;2023-05-07T14:15:01;4.53;;;2.50;;
77544;SDS011;66672;50.328;7.610;2023-05-07T14:17:26;5.22;;;2.75;;
77544;SDS011;66672;50.328;7.610;2023-05-07T14:19:52;5.30;;;2.65;;
77544;SDS011;66672;50.328;7.610;2023-05-07T14:22:19;4.15;;;2.45;;
77544;SDS011;66672;50.328;7.610;2023-05-07T14:24:44;4.47;;;2.60;;
77544;SDS011;66672;50.328;7.610;2023-05-07T14:27:10;3.47;;;2.38;;
77544;SDS011;66672;50.328;7.610;2023-05-07T14:29:35;3.58;;;2.20;;
77544;SDS011;66672;50.328;7.610;2023-05-07T14:32:01;4.13;;;2.40;;
77544;SDS011;66672;50.328;7.610;2023-05-07T14:34:27;3.17;;;2.28;;
77544;SDS011;66672;50.328;7.610;2023-05-07T14:36:52;4.55;;;2.72;;
77544;SDS011;66672;50.328;7.610;2023-05-07T14:39:17;5.27;;;2.20;;
77544;SDS011;66672;50.328;7.610;2023-05-07T14:41:42;5.82;;;2.40;;
77544;SDS011;66672;50.328;7.610;2023-05-07T14:44:07;4.70;;;2.15;;
77544;SDS011;66672;50.328;7.610;2023-05-07T14:46:33;3.85;;;2.47;;
77544;SDS011;66672;50.328;7.610;2023-05-07T14:48:58;3.90;;;2.40;;
77544;SDS011;66672;50.328;7.610;2023-05-07T14:51:23;3.08;;;2.00;;
77544;SDS011;66672;50.328;7.610;2023-05-07T14:53:49;3.90;;;2.08;;
77544;SDS011;66672;50.328;7.610;2023-05-07T14:56:15;4.18;;;2.40;;
77544;SDS011;66672;50.328;7.610;2023-05-07T14:58:40;4.95;;;2.25;;